createdAt,value
2023-01-21T00:01:50.766Z,17.78
2023-01-21T00:04:17.229Z,17.76
2023-01-21T00:06:43.602Z,17.76
2023-01-21T00:09:10.677Z,17.74
2023-01-21T00:11:37.133Z,17.71
2023-01-21T00:14:03.570Z,17.72
2023-01-21T00:16:30.000Z,17.69
2023-01-21T00:18:56.770Z,17.69
2023-01-21T00:21:23.150Z,17.67
2023-01-21T00:23:49.518Z,17.64
2023-01-21T00:26:15.886Z,17.62
2023-01-21T00:28:43.542Z,17.59
2023-01-21T00:31:11.072Z,17.56
2023-01-21T00:33:38.087Z,17.56
2023-01-21T00:36:12.451Z,17.50
2023-01-21T00:38:38.856Z,17.49
2023-01-21T00:41:08.667Z,17.46
2023-01-21T00:43:35.549Z,17.46
2023-01-21T00:46:02.004Z,17.35
2023-01-21T00:48:28.811Z,17.38
2023-01-21T00:50:58.893Z,17.36
2023-01-21T00:53:25.390Z,17.36
2023-01-21T00:55:51.757Z,17.33
2023-01-21T00:58:18.182Z,17.28
2023-01-21T01:00:44.731Z,17.26
2023-01-21T01:03:11.247Z,17.23
2023-01-21T01:05:37.660Z,17.19
2023-01-21T01:08:04.124Z,17.16
2023-01-21T01:10:30.544Z,17.15
2023-01-21T01:12:56.944Z,17.12
2023-01-21T01:15:23.360Z,17.10
2023-01-21T01:17:49.717Z,17.07
2023-01-21T01:20:16.546Z,17.03
2023-01-21T01:22:43.085Z,17.01
2023-01-21T01:25:09.586Z,16.97
2023-01-21T01:27:35.983Z,16.93
2023-01-21T01:30:02.410Z,16.91
2023-01-21T01:32:28.913Z,16.88
2023-01-21T01:34:55.274Z,16.85
2023-01-21T01:37:21.976Z,16.80
2023-01-21T01:39:48.381Z,16.79
2023-01-21T01:42:15.707Z,16.69
2023-01-21T01:44:59.506Z,16.65
2023-01-21T01:47:31.332Z,16.66
2023-01-21T01:49:58.579Z,16.67
2023-01-21T01:52:25.075Z,16.65
2023-01-21T01:54:53.709Z,16.60
2023-01-21T01:57:22.709Z,16.48
2023-01-21T01:59:50.112Z,16.58
2023-01-21T02:02:18.661Z,16.55
2023-01-21T02:04:48.600Z,16.50
2023-01-21T02:07:15.900Z,16.51
2023-01-21T02:09:42.335Z,16.49
2023-01-21T02:12:09.124Z,16.48
2023-01-21T02:14:42.720Z,16.46
2023-01-21T02:17:41.422Z,16.34
2023-01-21T02:20:45.391Z,16.31
2023-01-21T02:23:24.907Z,16.42
2023-01-21T02:26:00.483Z,16.42
2023-01-21T02:28:56.739Z,16.32
2023-01-21T02:31:36.044Z,16.37
2023-01-21T02:34:11.741Z,16.36
2023-01-21T02:36:45.359Z,16.30
2023-01-21T02:39:33.402Z,16.33
2023-01-21T02:42:06.279Z,16.29
2023-01-21T02:44:35.565Z,16.43
2023-01-21T02:47:16.629Z,16.39
2023-01-21T02:49:50.628Z,16.40
2023-01-21T02:52:21.484Z,16.44
2023-01-21T02:54:56.466Z,16.20
2023-01-21T02:57:51.214Z,16.35
2023-01-21T03:00:26.284Z,16.36
2023-01-21T03:03:09.543Z,16.38
2023-01-21T03:06:08.315Z,16.44
2023-01-21T03:08:56.785Z,16.34
2023-01-21T03:11:23.400Z,16.46
2023-01-21T03:14:12.376Z,16.44
2023-01-21T03:17:02.776Z,16.40
2023-01-21T03:19:40.412Z,16.39
2023-01-21T03:22:11.301Z,16.44
2023-01-21T03:24:40.783Z,16.44
2023-01-21T03:27:07.294Z,16.49
2023-01-21T03:29:33.935Z,16.50
2023-01-21T03:32:04.996Z,16.48
2023-01-21T03:34:34.492Z,16.50
2023-01-21T03:37:08.711Z,16.47
2023-01-21T03:39:47.063Z,16.48
2023-01-21T03:42:14.156Z,16.53
2023-01-21T03:44:40.999Z,16.41
2023-01-21T03:47:22.824Z,16.46
2023-01-21T03:50:09.655Z,16.42
2023-01-21T03:52:39.945Z,16.48
2023-01-21T03:55:07.160Z,16.53
2023-01-21T03:57:33.548Z,16.53
2023-01-21T03:59:59.968Z,16.51
2023-01-21T04:02:26.372Z,16.40
2023-01-21T04:04:53.129Z,16.53
2023-01-21T04:07:19.702Z,16.50
2023-01-21T04:09:46.113Z,16.50
2023-01-21T04:12:12.764Z,16.51
2023-01-21T04:14:39.217Z,16.51
2023-01-21T04:17:05.677Z,16.51
2023-01-21T04:19:32.066Z,16.53
2023-01-21T04:21:58.424Z,16.49
2023-01-21T04:24:24.891Z,16.53
2023-01-21T04:26:51.540Z,16.52
2023-01-21T04:29:18.124Z,16.45
2023-01-21T04:31:44.628Z,16.53
2023-01-21T04:34:11.184Z,16.53
2023-01-21T04:36:37.673Z,16.52
2023-01-21T04:39:04.156Z,16.52
2023-01-21T04:41:30.714Z,16.53
2023-01-21T04:43:57.067Z,16.53
2023-01-21T04:46:23.505Z,16.53
2023-01-21T04:48:49.921Z,16.53
2023-01-21T04:51:16.323Z,16.52
2023-01-21T04:53:42.717Z,16.53
2023-01-21T04:56:09.082Z,16.53
2023-01-21T04:58:35.547Z,16.52
2023-01-21T05:01:01.967Z,16.54
2023-01-21T05:03:28.367Z,16.53
2023-01-21T05:05:54.764Z,16.54
2023-01-21T05:08:21.194Z,16.53
2023-01-21T05:10:47.552Z,16.54
2023-01-21T05:13:13.952Z,16.55
2023-01-21T05:15:40.352Z,16.57
2023-01-21T05:18:06.784Z,16.59
2023-01-21T05:20:33.191Z,16.60
2023-01-21T05:22:59.580Z,16.63
2023-01-21T05:25:25.937Z,16.67
2023-01-21T05:27:55.710Z,16.69
2023-01-21T05:30:22.339Z,16.73
2023-01-21T05:32:52.923Z,16.75
2023-01-21T05:35:23.413Z,16.78
2023-01-21T05:37:49.940Z,16.86
2023-01-21T05:40:17.771Z,16.89
2023-01-21T05:42:44.340Z,16.92
2023-01-21T05:45:13.992Z,16.95
2023-01-21T05:47:40.282Z,16.73
2023-01-21T05:50:07.593Z,16.97
2023-01-21T05:52:33.988Z,17.03
2023-01-21T05:55:02.571Z,17.07
2023-01-21T05:57:30.144Z,17.13
2023-01-21T05:59:56.881Z,17.12
2023-01-21T06:02:23.596Z,17.16
2023-01-21T06:04:50.067Z,17.25
2023-01-21T06:07:16.528Z,17.31
2023-01-21T06:09:43.041Z,17.35
2023-01-21T06:12:09.408Z,17.37
2023-01-21T06:14:35.785Z,17.39
2023-01-21T06:17:02.140Z,17.31
2023-01-21T06:19:28.552Z,17.42
2023-01-21T06:21:55.014Z,17.44
2023-01-21T06:24:21.407Z,17.44
2023-01-21T06:26:47.812Z,17.46
2023-01-21T06:29:14.171Z,17.47
2023-01-21T06:31:41.184Z,17.48
2023-01-21T06:34:07.689Z,17.51
2023-01-21T06:36:34.172Z,17.52
2023-01-21T06:39:00.588Z,17.53
2023-01-21T06:41:27.101Z,17.55
2023-01-21T06:43:53.510Z,17.57
2023-01-21T06:46:19.938Z,17.59
2023-01-21T06:48:46.440Z,17.61
2023-01-21T06:51:12.919Z,17.62
2023-01-21T06:53:39.349Z,17.64
2023-01-21T06:56:05.864Z,17.66
2023-01-21T06:58:32.220Z,17.67
2023-01-21T07:00:58.679Z,17.69
2023-01-21T07:03:25.056Z,17.71
2023-01-21T07:05:51.560Z,17.73
2023-01-21T07:08:17.945Z,17.74
2023-01-21T07:10:46.805Z,17.75
2023-01-21T07:13:13.936Z,17.48
2023-01-21T07:15:40.464Z,17.72
2023-01-21T07:18:06.867Z,17.75
2023-01-21T07:20:33.603Z,17.77
2023-01-21T07:23:00.002Z,17.78
2023-01-21T07:25:26.424Z,17.78
2023-01-21T07:27:52.845Z,17.79
2023-01-21T07:30:20.084Z,17.80
2023-01-21T07:32:47.389Z,17.79
2023-01-21T07:35:14.489Z,17.80
2023-01-21T07:37:41.169Z,17.81
2023-01-21T07:40:08.295Z,17.81
2023-01-21T07:42:34.762Z,17.81
2023-01-21T07:45:03.781Z,17.81
2023-01-21T07:47:30.325Z,17.81
2023-01-21T07:49:56.711Z,17.82
2023-01-21T07:52:23.137Z,17.81
2023-01-21T07:54:49.574Z,17.82
2023-01-21T07:57:15.989Z,17.81
2023-01-21T07:59:42.782Z,17.81
2023-01-21T08:02:10.324Z,17.81
2023-01-21T08:04:36.732Z,17.81
2023-01-21T08:07:11.207Z,17.80
2023-01-21T08:09:39.678Z,17.80
2023-01-21T08:12:07.190Z,17.80
2023-01-21T08:14:33.929Z,17.76
2023-01-21T08:17:00.665Z,17.79
2023-01-21T08:19:27.214Z,17.78
2023-01-21T08:21:53.670Z,17.78
2023-01-21T08:24:20.085Z,17.77
2023-01-21T08:26:46.546Z,17.77
2023-01-21T08:29:12.962Z,17.77
2023-01-21T08:31:39.644Z,17.75
2023-01-21T08:34:06.124Z,17.73
2023-01-21T08:36:32.494Z,17.74
2023-01-21T08:38:58.901Z,17.73
2023-01-21T08:41:25.577Z,17.71
2023-01-21T08:43:52.203Z,17.72
2023-01-21T08:46:18.705Z,17.72
2023-01-21T08:48:45.213Z,17.70
2023-01-21T08:51:11.706Z,17.71
2023-01-21T08:53:38.144Z,17.71
2023-01-21T08:56:05.227Z,17.66
2023-01-21T08:58:32.364Z,17.72
2023-01-21T09:00:58.986Z,17.69
2023-01-21T09:03:25.536Z,17.72
2023-01-21T09:05:52.112Z,17.70
2023-01-21T09:08:18.996Z,17.70
2023-01-21T09:11:03.623Z,17.72
2023-01-21T09:13:35.105Z,17.67
2023-01-21T09:16:01.766Z,17.71
2023-01-21T09:18:28.206Z,17.72
2023-01-21T09:20:54.679Z,17.71
2023-01-21T09:23:24.281Z,17.51
2023-01-21T09:25:52.401Z,17.72
2023-01-21T09:28:20.703Z,17.71
2023-01-21T09:30:47.678Z,17.68
2023-01-21T09:33:15.504Z,17.62
2023-01-21T09:35:42.026Z,17.71
2023-01-21T09:38:08.813Z,17.66
2023-01-21T09:40:35.621Z,17.73
2023-01-21T09:43:09.436Z,17.71
2023-01-21T09:45:35.967Z,17.73
2023-01-21T09:48:03.547Z,17.67
2023-01-21T09:50:31.913Z,17.74
2023-01-21T09:53:06.600Z,17.64
2023-01-21T09:55:41.042Z,17.68
2023-01-21T09:58:36.937Z,17.62
2023-01-21T10:01:12.810Z,17.69
2023-01-21T10:03:43.605Z,17.71
2023-01-21T10:06:28.731Z,17.71
2023-01-21T10:09:07.143Z,17.69
2023-01-21T10:11:51.841Z,17.70
2023-01-21T10:14:46.330Z,17.61
2023-01-21T10:17:18.484Z,17.69
2023-01-21T10:19:52.415Z,17.69
2023-01-21T10:22:24.153Z,17.57
2023-01-21T10:24:56.455Z,17.72
2023-01-21T10:27:23.760Z,17.76
2023-01-21T10:29:52.890Z,17.71
2023-01-21T10:32:22.550Z,17.74
2023-01-21T10:34:52.578Z,17.48
2023-01-21T10:37:46.078Z,17.60
2023-01-21T10:40:18.829Z,17.75
2023-01-21T10:42:58.700Z,17.74
2023-01-21T10:45:52.845Z,17.64
2023-01-21T10:48:34.373Z,17.74
2023-01-21T10:51:18.565Z,17.68
2023-01-21T10:53:54.569Z,17.72
2023-01-21T10:56:30.140Z,17.75
2023-01-21T10:59:00.929Z,17.68
2023-01-21T11:01:35.430Z,17.75
2023-01-21T11:04:10.383Z,17.75
2023-01-21T11:06:37.441Z,17.81
2023-01-21T11:09:05.353Z,17.77
2023-01-21T11:11:35.247Z,17.77
2023-01-21T11:14:01.890Z,17.81
2023-01-21T11:16:43.311Z,17.75
2023-01-21T11:19:15.969Z,17.80
2023-01-21T11:21:57.854Z,17.73
2023-01-21T11:24:25.319Z,17.82
2023-01-21T11:26:56.840Z,17.79
2023-01-21T11:29:24.906Z,17.81
2023-01-21T11:32:01.641Z,17.70
2023-01-21T11:34:28.602Z,17.82
2023-01-21T11:37:03.850Z,17.76
2023-01-21T11:39:32.857Z,17.79
2023-01-21T11:42:06.345Z,17.77
2023-01-21T11:44:33.819Z,17.82
2023-01-21T11:47:00.328Z,17.83
2023-01-21T11:49:31.757Z,17.78
2023-01-21T11:52:13.723Z,17.73
2023-01-21T11:54:40.420Z,17.50
2023-01-21T11:57:19.640Z,17.62
2023-01-21T11:59:47.397Z,17.76
2023-01-21T12:02:24.119Z,17.74
2023-01-21T12:05:16.342Z,17.63
2023-01-21T12:07:42.968Z,17.74
2023-01-21T12:10:12.383Z,17.70
2023-01-21T12:12:48.780Z,17.66
2023-01-21T12:15:23.225Z,17.62
2023-01-21T12:18:05.057Z,17.58
2023-01-21T12:21:00.644Z,17.53
2023-01-21T12:23:46.035Z,17.55
2023-01-21T12:26:34.729Z,17.57
2023-01-21T12:29:52.425Z,17.48
2023-01-21T12:32:38.480Z,17.43
2023-01-21T12:35:29.411Z,17.46
2023-01-21T12:38:00.626Z,17.55
2023-01-21T12:40:33.638Z,17.56
2023-01-21T12:43:16.178Z,17.56
2023-01-21T12:46:01.135Z,17.56
2023-01-21T12:48:32.207Z,17.69
2023-01-21T12:51:05.291Z,17.68
2023-01-21T12:53:44.515Z,17.67
2023-01-21T12:56:26.365Z,17.68
2023-01-21T12:59:42.169Z,17.64
2023-01-21T13:02:38.773Z,17.68
2023-01-21T13:05:14.148Z,17.71
2023-01-21T13:07:47.569Z,17.74
2023-01-21T13:10:29.406Z,17.72
2023-01-21T13:13:05.604Z,17.46
2023-01-21T13:15:43.119Z,17.55
2023-01-21T13:18:23.608Z,17.23
2023-01-21T13:20:54.646Z,17.40
2023-01-21T13:23:43.467Z,17.62
2023-01-21T13:26:15.864Z,17.82
2023-01-21T13:28:51.801Z,17.80
2023-01-21T13:31:39.654Z,17.76
2023-01-21T13:34:32.239Z,17.75
2023-01-21T13:37:40.011Z,17.71
2023-01-21T13:40:30.754Z,17.69
2023-01-21T13:43:03.684Z,17.76
2023-01-21T13:46:07.638Z,17.72
2023-01-21T13:48:43.088Z,17.78
2023-01-21T13:51:16.409Z,17.77
2023-01-21T13:54:04.603Z,17.64
2023-01-21T13:56:40.482Z,17.48
2023-01-21T13:59:26.344Z,17.62
2023-01-21T14:02:00.253Z,17.68
2023-01-21T14:04:48.892Z,17.67
2023-01-21T14:07:28.755Z,17.62
2023-01-21T14:10:30.655Z,17.67
2023-01-21T14:13:21.728Z,17.64
2023-01-21T14:16:02.931Z,17.60
2023-01-21T14:18:49.333Z,17.57
2023-01-21T14:21:31.292Z,17.57
2023-01-21T14:24:16.314Z,17.37
2023-01-21T14:27:30.063Z,17.49
2023-01-21T14:30:09.122Z,17.57
2023-01-21T14:32:40.699Z,17.63
2023-01-21T14:35:28.178Z,17.55
2023-01-21T14:38:18.344Z,17.47
2023-01-21T14:40:48.822Z,17.59
2023-01-21T14:43:46.405Z,17.60
2023-01-21T14:46:31.215Z,17.46
2023-01-21T14:49:08.860Z,17.71
2023-01-21T14:51:47.714Z,17.74
2023-01-21T14:54:22.074Z,17.73
2023-01-21T14:57:01.632Z,17.73
2023-01-21T14:59:37.360Z,17.77
2023-01-21T15:02:34.864Z,17.75
2023-01-21T15:05:10.322Z,17.76
2023-01-21T15:07:41.497Z,17.82
2023-01-21T15:10:31.266Z,17.77
2023-01-21T15:13:00.265Z,17.86
2023-01-21T15:15:28.180Z,17.90
2023-01-21T15:17:54.472Z,17.92
2023-01-21T15:20:42.145Z,17.83
2023-01-21T15:23:28.127Z,17.82
2023-01-21T15:26:10.987Z,17.88
2023-01-21T15:28:48.663Z,17.87
2023-01-21T15:31:21.304Z,17.90
2023-01-21T15:33:52.656Z,17.94
2023-01-21T15:36:31.969Z,17.88
2023-01-21T15:39:02.035Z,17.95
2023-01-21T15:41:39.706Z,17.90
2023-01-21T15:44:27.762Z,17.88
2023-01-21T15:46:58.197Z,17.93
2023-01-21T15:49:34.053Z,17.98
2023-01-21T15:52:03.336Z,17.70
2023-01-21T15:54:56.842Z,17.84
2023-01-21T15:57:29.552Z,17.84
2023-01-21T16:00:18.159Z,17.87
2023-01-21T16:02:56.241Z,17.90
2023-01-21T16:05:49.433Z,17.79
2023-01-21T16:08:22.084Z,17.93
2023-01-21T16:11:12.206Z,17.91
2023-01-21T16:13:55.932Z,17.92
2023-01-21T16:16:38.483Z,17.95
2023-01-21T16:19:11.076Z,17.94
2023-01-21T16:21:40.253Z,17.97
2023-01-21T16:24:19.603Z,17.93
2023-01-21T16:26:46.036Z,18.00
2023-01-21T16:29:14.158Z,18.00
2023-01-21T16:31:51.731Z,17.94
2023-01-21T16:34:40.926Z,17.91
2023-01-21T16:37:19.131Z,17.94
2023-01-21T16:39:45.589Z,18.01
2023-01-21T16:42:29.120Z,17.88
2023-01-21T16:44:55.550Z,18.01
2023-01-21T16:47:36.465Z,17.93
2023-01-21T16:50:05.316Z,18.02
2023-01-21T16:52:31.913Z,18.02
2023-01-21T16:54:58.332Z,18.02
2023-01-21T16:57:31.434Z,17.96
2023-01-21T16:59:58.162Z,18.00
2023-01-21T17:02:32.525Z,17.94
2023-01-21T17:05:02.027Z,17.98
2023-01-21T17:07:46.161Z,17.95
2023-01-21T17:10:19.254Z,17.93
2023-01-21T17:12:50.964Z,17.91
2023-01-21T17:15:41.308Z,17.82
2023-01-21T17:18:21.650Z,17.84
2023-01-21T17:20:58.553Z,17.83
2023-01-21T17:23:26.584Z,17.87
2023-01-21T17:25:57.988Z,17.83
2023-01-21T17:28:53.599Z,17.74
2023-01-21T17:31:28.675Z,17.65
2023-01-21T17:34:17.108Z,17.70
2023-01-21T17:36:45.805Z,17.76
2023-01-21T17:39:13.021Z,17.75
2023-01-21T17:41:41.232Z,17.73
2023-01-21T17:44:18.513Z,17.62
2023-01-21T17:46:50.201Z,17.64
2023-01-21T17:49:18.859Z,17.63
2023-01-21T17:51:45.665Z,17.62
2023-01-21T17:54:20.395Z,17.62
2023-01-21T17:56:54.924Z,17.63
2023-01-21T17:59:37.795Z,17.45
2023-01-21T18:02:09.630Z,17.59
2023-01-21T18:04:36.054Z,17.62
2023-01-21T18:07:02.534Z,17.59
2023-01-21T18:09:29.018Z,17.58
2023-01-21T18:11:57.222Z,17.55
2023-01-21T18:14:25.531Z,17.52
2023-01-21T18:16:53.558Z,17.51
2023-01-21T18:19:27.617Z,17.43
2023-01-21T18:21:54.728Z,17.46
2023-01-21T18:24:21.303Z,17.43
2023-01-21T18:26:47.773Z,17.42
2023-01-21T18:29:15.024Z,17.40
2023-01-21T18:31:41.582Z,17.37
2023-01-21T18:34:10.308Z,17.33
2023-01-21T18:36:40.398Z,17.23
2023-01-21T18:39:12.110Z,17.26
2023-01-21T18:41:38.592Z,17.27
2023-01-21T18:44:05.037Z,17.16
2023-01-21T18:46:31.490Z,17.24
2023-01-21T18:48:57.945Z,17.20
2023-01-21T18:51:24.380Z,17.20
2023-01-21T18:53:50.864Z,17.18
2023-01-21T18:56:17.463Z,17.16
2023-01-21T18:58:43.886Z,17.15
2023-01-21T19:01:22.699Z,17.05
2023-01-21T19:03:52.325Z,17.01
2023-01-21T19:06:18.843Z,17.11
2023-01-21T19:08:46.056Z,17.08
2023-01-21T19:11:13.932Z,17.07
2023-01-21T19:13:40.335Z,17.06
2023-01-21T19:16:13.973Z,17.00
2023-01-21T19:18:40.431Z,17.02
2023-01-21T19:21:08.165Z,17.02
2023-01-21T19:23:37.500Z,16.99
2023-01-21T19:26:04.778Z,16.99
2023-01-21T19:28:31.527Z,16.97
2023-01-21T19:30:58.565Z,16.95
2023-01-21T19:33:25.442Z,16.94
2023-01-21T19:36:12.890Z,16.82
2023-01-21T19:38:39.287Z,16.89
2023-01-21T19:41:05.679Z,16.88
2023-01-21T19:43:32.276Z,16.87
2023-01-21T19:45:58.664Z,16.87
2023-01-21T19:48:26.596Z,16.84
2023-01-21T19:50:53.065Z,16.83
2023-01-21T19:53:21.640Z,16.81
2023-01-21T19:55:49.668Z,16.80
2023-01-21T19:58:19.631Z,16.76
2023-01-21T20:00:50.958Z,16.75
2023-01-21T20:03:18.513Z,16.75
2023-01-21T20:05:45.308Z,16.64
2023-01-21T20:08:14.086Z,16.72
2023-01-21T20:10:41.179Z,16.70
2023-01-21T20:13:12.301Z,16.64
2023-01-21T20:15:39.745Z,16.67
2023-01-21T20:18:06.551Z,16.66
2023-01-21T20:20:33.285Z,16.65
2023-01-21T20:23:00.794Z,16.63
2023-01-21T20:25:37.807Z,16.56
2023-01-21T20:28:14.694Z,16.56
2023-01-21T20:30:41.151Z,16.60
2023-01-21T20:33:10.866Z,16.58
2023-01-21T20:35:37.437Z,16.60
2023-01-21T20:38:03.839Z,16.58
2023-01-21T20:40:30.513Z,16.58
2023-01-21T20:42:57.726Z,16.59
2023-01-21T20:45:29.904Z,16.53
2023-01-21T20:47:58.216Z,16.54
2023-01-21T20:50:26.873Z,16.52
2023-01-21T20:52:53.995Z,16.53
2023-01-21T20:55:24.027Z,16.52
2023-01-21T20:57:50.561Z,16.50
2023-01-21T21:00:28.918Z,16.49
2023-01-21T21:02:55.570Z,16.47
2023-01-21T21:05:22.246Z,16.46
2023-01-21T21:07:48.727Z,16.47
2023-01-21T21:10:21.107Z,16.42
2023-01-21T21:12:48.201Z,16.35
2023-01-21T21:15:15.121Z,16.44
2023-01-21T21:17:43.488Z,16.43
2023-01-21T21:20:16.228Z,16.39
2023-01-21T21:22:42.838Z,16.42
2023-01-21T21:25:13.487Z,16.39
2023-01-21T21:27:39.848Z,16.39
2023-01-21T21:30:08.622Z,16.40
2023-01-21T21:32:35.026Z,16.37
2023-01-21T21:35:01.409Z,16.37
2023-01-21T21:37:27.779Z,16.37
2023-01-21T21:39:54.221Z,16.35
2023-01-21T21:42:39.272Z,16.35
2023-01-21T21:45:06.128Z,16.30
2023-01-21T21:47:55.403Z,16.30
2023-01-21T21:50:21.818Z,16.28
2023-01-21T21:52:48.187Z,16.29
2023-01-21T21:55:16.931Z,16.28
2023-01-21T21:57:43.492Z,16.27
2023-01-21T22:00:10.451Z,16.25
2023-01-21T22:02:36.954Z,16.24
2023-01-21T22:05:03.638Z,16.24
2023-01-21T22:07:30.109Z,16.23
2023-01-21T22:09:56.459Z,16.20
2023-01-21T22:12:22.853Z,16.20
2023-01-21T22:14:49.285Z,16.20
2023-01-21T22:17:15.648Z,16.18
2023-01-21T22:19:42.006Z,16.18
2023-01-21T22:22:08.415Z,16.16
2023-01-21T22:24:35.143Z,16.15
2023-01-21T22:27:01.885Z,16.15
2023-01-21T22:29:29.536Z,16.16
2023-01-21T22:31:55.994Z,16.14
2023-01-21T22:34:22.445Z,16.14
2023-01-21T22:36:48.919Z,16.11
2023-01-21T22:39:15.561Z,16.14
2023-01-21T22:41:42.001Z,16.14
2023-01-21T22:44:09.483Z,16.14
2023-01-21T22:46:35.989Z,16.15
2023-01-21T22:49:03.051Z,16.17
2023-01-21T22:51:29.501Z,16.17
2023-01-21T22:53:56.239Z,16.18
2023-01-21T22:56:39.976Z,16.20
2023-01-21T22:59:10.806Z,16.21
2023-01-21T23:01:37.390Z,16.25
2023-01-21T23:04:03.822Z,16.28
2023-01-21T23:06:30.265Z,16.29
2023-01-21T23:08:56.820Z,16.34
2023-01-21T23:11:23.232Z,16.36
2023-01-21T23:13:49.784Z,16.38
2023-01-21T23:16:18.550Z,16.38
2023-01-21T23:18:44.972Z,16.41
2023-01-21T23:21:17.518Z,16.42
2023-01-21T23:23:44.134Z,16.45
2023-01-21T23:26:11.609Z,16.47
2023-01-21T23:28:38.289Z,16.49
2023-01-21T23:31:09.679Z,16.48
2023-01-21T23:33:36.332Z,16.53
2023-01-21T23:36:02.780Z,16.54
2023-01-21T23:38:29.747Z,16.55
2023-01-21T23:40:56.980Z,16.56
2023-01-21T23:43:27.093Z,16.55
2023-01-21T23:45:54.228Z,16.58
2023-01-21T23:48:21.177Z,16.56
2023-01-21T23:50:47.600Z,16.57
2023-01-21T23:53:14.128Z,16.59
2023-01-21T23:55:40.632Z,16.60
2023-01-21T23:58:07.065Z,16.58
